sensor_id;sensor_type;location;lat;lon;timestamp;temperature;humidity
18444;DHT22;9350;53.176;8.194;2023-05-07T00:02:14;13.00;99.90
18444;DHT22;9350;53.176;8.194;2023-05-07T00:04:41;13.00;99.90
18444;DHT22;9350;53.176;8.194;2023-05-07T00:07:08;13.00;99.90
18444;DHT22;9350;53.176;8.194;2023-05-07T00:09:35;12.90;99.90
18444;DHT22;9350;53.176;8.194;2023-05-07T00:12:03;12.90;99.90
18444;DHT22;9350;53.176;8.194;2023-05-07T00:14:30;12.90;99.90
18444;DHT22;9350;53.176;8.194;2023-05-07T00:16:57;12.90;99.90
18444;DHT22;9350;53.176;8.194;2023-05-07T00:19:24;12.90;99.90
18444;DHT22;9350;53.176;8.194;2023-05-07T00:21:51;12.90;99.90
18444;DHT22;9350;53.176;8.194;2023-05-07T00:24:19;12.80;99.90
18444;DHT22;9350;53.176;8.194;2023-05-07T00:26:45;12.80;99.90
18444;DHT22;9350;53.176;8.194;2023-05-07T00:29:13;12.80;99.90
18444;DHT22;9350;53.176;8.194;2023-05-07T00:31:40;12.70;99.90
18444;DHT22;9350;53.176;8.194;2023-05-07T00:34:07;12.70;99.90
18444;DHT22;9350;53.176;8.194;2023-05-07T00:36:33;12.70;99.90
18444;DHT22;9350;53.176;8.194;2023-05-07T00:39:00;12.70;99.90
18444;DHT22;9350;53.176;8.194;2023-05-07T00:41:28;12.70;99.90
18444;DHT22;9350;53.176;8.194;2023-05-07T00:43:56;12.80;99.90
18444;DHT22;9350;53.176;8.194;2023-05-07T00:46:25;12.80;99.90
18444;DHT22;9350;53.176;8.194;2023-05-07T00:48:52;12.70;99.90
18444;DHT22;9350;53.176;8.194;2023-05-07T00:51:20;12.70;99.90
18444;DHT22;9350;53.176;8.194;2023-05-07T00:53:46;12.70;99.90
18444;DHT22;9350;53.176;8.194;2023-05-07T00:56:13;12.60;99.90
18444;DHT22;9350;53.176;8.194;2023-05-07T00:58:41;12.50;99.90
18444;DHT22;9350;53.176;8.194;2023-05-07T01:01:08;12.70;99.90
18444;DHT22;9350;53.176;8.194;2023-05-07T01:03:36;12.60;99.90
18444;DHT22;9350;53.176;8.194;2023-05-07T01:06:04;12.70;99.90
18444;DHT22;9350;53.176;8.194;2023-05-07T01:08:32;12.60;99.90
18444;DHT22;9350;53.176;8.194;2023-05-07T01:11:00;12.60;99.90
18444;DHT22;9350;53.176;8.194;2023-05-07T01:13:27;12.60;99.90
18444;DHT22;9350;53.176;8.194;2023-05-07T01:15:54;12.50;99.90
18444;DHT22;9350;53.176;8.194;2023-05-07T01:18:21;12.50;99.90
18444;DHT22;9350;53.176;8.194;2023-05-07T01:20:49;12.50;99.90
18444;DHT22;9350;53.176;8.194;2023-05-07T01:23:18;12.40;99.90
18444;DHT22;9350;53.176;8.194;2023-05-07T01:25:51;12.40;99.90
18444;DHT22;9350;53.176;8.194;2023-05-07T01:28:18;12.40;99.90
18444;DHT22;9350;53.176;8.194;2023-05-07T01:30:46;12.30;99.90
18444;DHT22;9350;53.176;8.194;2023-05-07T01:33:15;12.30;99.90
18444;DHT22;9350;53.176;8.194;2023-05-07T01:35:45;12.40;99.90
18444;DHT22;9350;53.176;8.194;2023-05-07T01:38:14;12.40;99.90
18444;DHT22;9350;53.176;8.194;2023-05-07T01:40:43;12.40;99.90
18444;DHT22;9350;53.176;8.194;2023-05-07T01:43:10;12.40;99.90
18444;DHT22;9350;53.176;8.194;2023-05-07T01:45:38;12.30;99.90
18444;DHT22;9350;53.176;8.194;2023-05-07T01:48:06;12.30;99.90
18444;DHT22;9350;53.176;8.194;2023-05-07T01:50:33;12.30;99.90
18444;DHT22;9350;53.176;8.194;2023-05-07T01:53:01;12.30;99.90
18444;DHT22;9350;53.176;8.194;2023-05-07T01:55:28;12.30;99.90
18444;DHT22;9350;53.176;8.194;2023-05-07T01:57:56;12.30;99.90
18444;DHT22;9350;53.176;8.194;2023-05-07T02:00:23;12.30;99.90
18444;DHT22;9350;53.176;8.194;2023-05-07T02:02:50;12.30;99.90
18444;DHT22;9350;53.176;8.194;2023-05-07T02:05:18;12.30;99.90
18444;DHT22;9350;53.176;8.194;2023-05-07T02:07:44;12.30;99.90
18444;DHT22;9350;53.176;8.194;2023-05-07T02:10:11;12.20;99.90
18444;DHT22;9350;53.176;8.194;2023-05-07T02:12:38;12.20;99.90
18444;DHT22;9350;53.176;8.194;2023-05-07T02:15:07;12.20;99.90
18444;DHT22;9350;53.176;8.194;2023-05-07T02:17:34;12.10;99.90
18444;DHT22;9350;53.176;8.194;2023-05-07T02:20:03;12.10;99.90
18444;DHT22;9350;53.176;8.194;2023-05-07T02:22:30;12.10;99.90
18444;DHT22;9350;53.176;8.194;2023-05-07T02:24:56;12.00;99.90
18444;DHT22;9350;53.176;8.194;2023-05-07T02:27:23;12.10;99.90
18444;DHT22;9350;53.176;8.194;2023-05-07T02:29:50;12.10;99.90
18444;DHT22;9350;53.176;8.194;2023-05-07T02:32:18;12.10;99.90
18444;DHT22;9350;53.176;8.194;2023-05-07T02:34:45;12.10;99.90
18444;DHT22;9350;53.176;8.194;2023-05-07T02:37:11;12.00;99.90
18444;DHT22;9350;53.176;8.194;2023-05-07T02:39:38;12.00;99.90
18444;DHT22;9350;53.176;8.194;2023-05-07T02:42:05;12.00;99.90
18444;DHT22;9350;53.176;8.194;2023-05-07T02:44:31;12.00;99.90
18444;DHT22;9350;53.176;8.194;2023-05-07T02:46:58;12.00;99.90
18444;DHT22;9350;53.176;8.194;2023-05-07T02:49:26;12.00;99.90
18444;DHT22;9350;53.176;8.194;2023-05-07T02:51:53;12.10;99.90
18444;DHT22;9350;53.176;8.194;2023-05-07T02:54:20;12.00;99.90
18444;DHT22;9350;53.176;8.194;2023-05-07T02:56:47;11.90;99.90
18444;DHT22;9350;53.176;8.194;2023-05-07T02:59:14;11.90;99.90
18444;DHT22;9350;53.176;8.194;2023-05-07T03:01:41;11.80;99.90
18444;DHT22;9350;53.176;8.194;2023-05-07T03:04:09;11.90;99.90
18444;DHT22;9350;53.176;8.194;2023-05-07T03:06:37;12.00;99.90
18444;DHT22;9350;53.176;8.194;2023-05-07T03:09:04;12.00;99.90
18444;DHT22;9350;53.176;8.194;2023-05-07T03:11:31;11.90;99.90
18444;DHT22;9350;53.176;8.194;2023-05-07T03:13:58;11.80;99.90
18444;DHT22;9350;53.176;8.194;2023-05-07T03:16:25;11.90;99.90
18444;DHT22;9350;53.176;8.194;2023-05-07T03:18:52;11.90;99.90
18444;DHT22;9350;53.176;8.194;2023-05-07T03:21:18;11.80;99.90
18444;DHT22;9350;53.176;8.194;2023-05-07T03:23:46;11.80;99.90
18444;DHT22;9350;53.176;8.194;2023-05-07T03:26:13;11.70;99.90
18444;DHT22;9350;53.176;8.194;2023-05-07T03:28:40;11.70;99.90
18444;DHT22;9350;53.176;8.194;2023-05-07T03:31:07;11.80;99.90
18444;DHT22;9350;53.176;8.194;2023-05-07T03:33:34;11.70;99.90
18444;DHT22;9350;53.176;8.194;2023-05-07T03:36:00;11.80;99.90
18444;DHT22;9350;53.176;8.194;2023-05-07T03:38:27;11.80;99.90
18444;DHT22;9350;53.176;8.194;2023-05-07T03:40:55;11.80;99.90
18444;DHT22;9350;53.176;8.194;2023-05-07T03:43:22;11.70;99.90
18444;DHT22;9350;53.176;8.194;2023-05-07T03:45:48;11.70;99.90
18444;DHT22;9350;53.176;8.194;2023-05-07T03:48:15;11.70;99.90
18444;DHT22;9350;53.176;8.194;2023-05-07T03:50:42;11.70;99.90
18444;DHT22;9350;53.176;8.194;2023-05-07T03:53:09;11.70;99.90
18444;DHT22;9350;53.176;8.194;2023-05-07T03:55:35;11.70;99.90
18444;DHT22;9350;53.176;8.194;2023-05-07T03:58:04;11.70;99.90
18444;DHT22;9350;53.176;8.194;2023-05-07T04:00:30;11.70;99.90
18444;DHT22;9350;53.176;8.194;2023-05-07T04:02:59;11.60;99.90
18444;DHT22;9350;53.176;8.194;2023-05-07T04:05:26;11.70;99.90
18444;DHT22;9350;53.176;8.194;2023-05-07T04:07:52;11.70;99.90
18444;DHT22;9350;53.176;8.194;2023-05-07T04:10:19;11.70;99.90
18444;DHT22;9350;53.176;8.194;2023-05-07T04:12:46;11.60;99.90
18444;DHT22;9350;53.176;8.194;2023-05-07T04:15:14;11.60;99.90
18444;DHT22;9350;53.176;8.194;2023-05-07T04:17:41;11.60;99.90
18444;DHT22;9350;53.176;8.194;2023-05-07T04:20:09;11.60;99.90
18444;DHT22;9350;53.176;8.194;2023-05-07T04:22:36;11.60;99.90
18444;DHT22;9350;53.176;8.194;2023-05-07T04:25:04;11.60;99.90
18444;DHT22;9350;53.176;8.194;2023-05-07T04:27:31;11.60;99.90
18444;DHT22;9350;53.176;8.194;2023-05-07T04:29:57;11.60;99.90
18444;DHT22;9350;53.176;8.194;2023-05-07T04:32:27;11.50;99.90
18444;DHT22;9350;53.176;8.194;2023-05-07T04:34:54;11.60;99.90
18444;DHT22;9350;53.176;8.194;2023-05-07T04:37:21;11.60;99.90
18444;DHT22;9350;53.176;8.194;2023-05-07T04:39:48;11.60;99.90
18444;DHT22;9350;53.176;8.194;2023-05-07T04:42:15;11.60;99.90
18444;DHT22;9350;53.176;8.194;2023-05-07T04:44:42;11.70;99.90
18444;DHT22;9350;53.176;8.194;2023-05-07T04:47:09;11.60;99.90
18444;DHT22;9350;53.176;8.194;2023-05-07T04:49:38;11.60;99.90
18444;DHT22;9350;53.176;8.194;2023-05-07T04:52:05;11.50;99.90
18444;DHT22;9350;53.176;8.194;2023-05-07T04:54:31;11.60;99.90
18444;DHT22;9350;53.176;8.194;2023-05-07T04:56:58;11.60;99.90
18444;DHT22;9350;53.176;8.194;2023-05-07T04:59:25;11.70;99.90
18444;DHT22;9350;53.176;8.194;2023-05-07T05:01:51;11.60;99.90
18444;DHT22;9350;53.176;8.194;2023-05-07T05:04:18;11.60;99.90
18444;DHT22;9350;53.176;8.194;2023-05-07T05:06:46;11.60;99.90
18444;DHT22;9350;53.176;8.194;2023-05-07T05:09:13;11.70;99.90
18444;DHT22;9350;53.176;8.194;2023-05-07T05:11:40;11.70;99.90
18444;DHT22;9350;53.176;8.194;2023-05-07T05:14:06;11.70;99.90
18444;DHT22;9350;53.176;8.194;2023-05-07T05:16:33;11.70;99.90
18444;DHT22;9350;53.176;8.194;2023-05-07T05:19:01;11.70;99.90
18444;DHT22;9350;53.176;8.194;2023-05-07T05:21:28;11.70;99.90
18444;DHT22;9350;53.176;8.194;2023-05-07T05:23:56;11.70;99.90
18444;DHT22;9350;53.176;8.194;2023-05-07T05:26:23;11.70;99.90
18444;DHT22;9350;53.176;8.194;2023-05-07T05:28:50;11.70;99.90
18444;DHT22;9350;53.176;8.194;2023-05-07T05:31:16;11.80;99.90
18444;DHT22;9350;53.176;8.194;2023-05-07T05:33:43;11.70;99.90
18444;DHT22;9350;53.176;8.194;2023-05-07T05:36:10;11.70;99.90
18444;DHT22;9350;53.176;8.194;2023-05-07T05:38:38;11.60;99.90
18444;DHT22;9350;53.176;8.194;2023-05-07T05:41:07;11.70;99.90
18444;DHT22;9350;53.176;8.194;2023-05-07T05:43:33;11.60;99.90
18444;DHT22;9350;53.176;8.194;2023-05-07T05:46:00;11.70;99.90
18444;DHT22;9350;53.176;8.194;2023-05-07T05:48:29;11.70;99.90
18444;DHT22;9350;53.176;8.194;2023-05-07T05:50:56;11.80;99.90
18444;DHT22;9350;53.176;8.194;2023-05-07T05:53:23;11.70;99.90
18444;DHT22;9350;53.176;8.194;2023-05-07T05:55:50;11.70;99.90
18444;DHT22;9350;53.176;8.194;2023-05-07T05:58:18;11.60;99.90
18444;DHT22;9350;53.176;8.194;2023-05-07T06:00:46;11.60;99.90
18444;DHT22;9350;53.176;8.194;2023-05-07T06:03:13;11.50;99.90
18444;DHT22;9350;53.176;8.194;2023-05-07T06:05:42;11.50;99.90
18444;DHT22;9350;53.176;8.194;2023-05-07T06:08:09;11.60;99.90
18444;DHT22;9350;53.176;8.194;2023-05-07T06:10:36;11.60;99.90
18444;DHT22;9350;53.176;8.194;2023-05-07T06:13:03;11.70;99.90
18444;DHT22;9350;53.176;8.194;2023-05-07T06:15:31;11.60;99.90
18444;DHT22;9350;53.176;8.194;2023-05-07T06:17:58;11.70;99.90
18444;DHT22;9350;53.176;8.194;2023-05-07T06:20:25;11.70;99.90
18444;DHT22;9350;53.176;8.194;2023-05-07T06:22:52;11.70;99.90
18444;DHT22;9350;53.176;8.194;2023-05-07T06:25:19;11.70;99.90
18444;DHT22;9350;53.176;8.194;2023-05-07T06:27:49;11.70;99.90
18444;DHT22;9350;53.176;8.194;2023-05-07T06:30:16;11.70;99.90
18444;DHT22;9350;53.176;8.194;2023-05-07T06:32:44;11.60;99.90
18444;DHT22;9350;53.176;8.194;2023-05-07T06:35:11;11.70;99.90
18444;DHT22;9350;53.176;8.194;2023-05-07T06:37:38;11.60;99.90
18444;DHT22;9350;53.176;8.194;2023-05-07T06:40:08;11.60;99.90
18444;DHT22;9350;53.176;8.194;2023-05-07T06:42:36;11.60;99.90
18444;DHT22;9350;53.176;8.194;2023-05-07T06:45:04;11.60;99.90
18444;DHT22;9350;53.176;8.194;2023-05-07T06:47:30;11.60;99.90
18444;DHT22;9350;53.176;8.194;2023-05-07T06:50:01;11.50;99.90
18444;DHT22;9350;53.176;8.194;2023-05-07T06:52:29;11.60;99.90
18444;DHT22;9350;53.176;8.194;2023-05-07T06:54:55;11.70;99.90
18444;DHT22;9350;53.176;8.194;2023-05-07T06:57:22;11.60;99.90
18444;DHT22;9350;53.176;8.194;2023-05-07T06:59:51;11.70;99.90
18444;DHT22;9350;53.176;8.194;2023-05-07T07:02:18;11.70;99.90
18444;DHT22;9350;53.176;8.194;2023-05-07T07:04:45;11.70;99.90
18444;DHT22;9350;53.176;8.194;2023-05-07T07:07:17;11.70;99.90
18444;DHT22;9350;53.176;8.194;2023-05-07T07:09:44;11.70;99.90
18444;DHT22;9350;53.176;8.194;2023-05-07T07:12:11;11.70;99.90
18444;DHT22;9350;53.176;8.194;2023-05-07T07:14:37;11.70;99.90
18444;DHT22;9350;53.176;8.194;2023-05-07T07:17:04;11.70;99.90
18444;DHT22;9350;53.176;8.194;2023-05-07T07:19:31;11.70;99.90
18444;DHT22;9350;53.176;8.194;2023-05-07T07:21:58;11.70;99.90
18444;DHT22;9350;53.176;8.194;2023-05-07T07:24:26;11.70;99.90
18444;DHT22;9350;53.176;8.194;2023-05-07T07:26:52;11.70;99.90
18444;DHT22;9350;53.176;8.194;2023-05-07T07:29:20;11.70;99.90
18444;DHT22;9350;53.176;8.194;2023-05-07T07:31:48;11.80;99.90
18444;DHT22;9350;53.176;8.194;2023-05-07T07:34:15;11.80;99.90
18444;DHT22;9350;53.176;8.194;2023-05-07T07:36:42;11.80;99.90
18444;DHT22;9350;53.176;8.194;2023-05-07T07:39:08;11.80;99.90
18444;DHT22;9350;53.176;8.194;2023-05-07T07:41:37;11.80;99.90
18444;DHT22;9350;53.176;8.194;2023-05-07T07:44:03;11.80;99.90
18444;DHT22;9350;53.176;8.194;2023-05-07T07:46:32;11.80;99.90
18444;DHT22;9350;53.176;8.194;2023-05-07T07:49:00;11.80;99.90
18444;DHT22;9350;53.176;8.194;2023-05-07T07:51:26;11.90;99.90
18444;DHT22;9350;53.176;8.194;2023-05-07T07:53:53;11.80;99.90
18444;DHT22;9350;53.176;8.194;2023-05-07T07:56:20;11.90;99.90
18444;DHT22;9350;53.176;8.194;2023-05-07T07:58:48;12.00;99.90
18444;DHT22;9350;53.176;8.194;2023-05-07T08:01:14;11.90;99.90
18444;DHT22;9350;53.176;8.194;2023-05-07T08:03:42;12.00;99.90
18444;DHT22;9350;53.176;8.194;2023-05-07T08:06:08;12.00;99.90
18444;DHT22;9350;53.176;8.194;2023-05-07T08:08:36;12.00;99.90
18444;DHT22;9350;53.176;8.194;2023-05-07T08:11:02;12.00;99.90
18444;DHT22;9350;53.176;8.194;2023-05-07T08:13:29;12.00;99.90
18444;DHT22;9350;53.176;8.194;2023-05-07T08:15:57;11.90;99.90
18444;DHT22;9350;53.176;8.194;2023-05-07T08:18:25;11.90;99.90
18444;DHT22;9350;53.176;8.194;2023-05-07T08:20:53;12.00;99.90
18444;DHT22;9350;53.176;8.194;2023-05-07T08:23:20;12.00;99.90
18444;DHT22;9350;53.176;8.194;2023-05-07T08:25:47;11.90;99.90
18444;DHT22;9350;53.176;8.194;2023-05-07T08:28:14;11.90;99.90
18444;DHT22;9350;53.176;8.194;2023-05-07T08:30:41;12.00;99.90
18444;DHT22;9350;53.176;8.194;2023-05-07T08:33:10;12.00;99.90
18444;DHT22;9350;53.176;8.194;2023-05-07T08:35:36;12.10;99.90
18444;DHT22;9350;53.176;8.194;2023-05-07T08:38:03;12.00;99.90
18444;DHT22;9350;53.176;8.194;2023-05-07T08:40:33;12.10;99.90
18444;DHT22;9350;53.176;8.194;2023-05-07T08:43:03;12.10;99.90
18444;DHT22;9350;53.176;8.194;2023-05-07T08:45:33;12.10;99.90
18444;DHT22;9350;53.176;8.194;2023-05-07T08:48:03;12.30;99.90
18444;DHT22;9350;53.176;8.194;2023-05-07T08:50:35;12.20;99.90
18444;DHT22;9350;53.176;8.194;2023-05-07T08:53:02;12.30;99.90
18444;DHT22;9350;53.176;8.194;2023-05-07T08:55:29;12.40;99.90
18444;DHT22;9350;53.176;8.194;2023-05-07T08:57:56;12.30;99.90
18444;DHT22;9350;53.176;8.194;2023-05-07T09:00:23;12.40;99.90
18444;DHT22;9350;53.176;8.194;2023-05-07T09:02:50;12.30;99.90
18444;DHT22;9350;53.176;8.194;2023-05-07T09:05:17;12.40;99.90
18444;DHT22;9350;53.176;8.194;2023-05-07T09:07:45;12.40;99.90
18444;DHT22;9350;53.176;8.194;2023-05-07T09:10:12;12.50;99.90
18444;DHT22;9350;53.176;8.194;2023-05-07T09:12:39;12.60;99.90
18444;DHT22;9350;53.176;8.194;2023-05-07T09:15:07;12.60;99.90
18444;DHT22;9350;53.176;8.194;2023-05-07T09:17:34;12.60;99.90
18444;DHT22;9350;53.176;8.194;2023-05-07T09:20:05;12.70;99.90
18444;DHT22;9350;53.176;8.194;2023-05-07T09:22:32;12.80;99.90
18444;DHT22;9350;53.176;8.194;2023-05-07T09:25:00;12.70;99.90
18444;DHT22;9350;53.176;8.194;2023-05-07T09:27:27;12.80;99.90
18444;DHT22;9350;53.176;8.194;2023-05-07T09:29:54;12.80;99.90
18444;DHT22;9350;53.176;8.194;2023-05-07T09:32:21;12.80;99.90
18444;DHT22;9350;53.176;8.194;2023-05-07T09:34:48;12.90;99.90
18444;DHT22;9350;53.176;8.194;2023-05-07T09:37:15;12.90;99.90
18444;DHT22;9350;53.176;8.194;2023-05-07T09:39:44;13.00;99.90
18444;DHT22;9350;53.176;8.194;2023-05-07T09:42:13;13.00;99.90
18444;DHT22;9350;53.176;8.194;2023-05-07T09:44:40;13.10;99.90
18444;DHT22;9350;53.176;8.194;2023-05-07T09:47:08;13.20;99.90
18444;DHT22;9350;53.176;8.194;2023-05-07T09:49:36;13.20;99.90
18444;DHT22;9350;53.176;8.194;2023-05-07T09:52:04;13.30;99.90
18444;DHT22;9350;53.176;8.194;2023-05-07T09:54:34;13.30;99.90
18444;DHT22;9350;53.176;8.194;2023-05-07T09:57:04;13.30;99.90
18444;DHT22;9350;53.176;8.194;2023-05-07T09:59:34;13.30;99.90
18444;DHT22;9350;53.176;8.194;2023-05-07T10:02:04;13.40;99.90
18444;DHT22;9350;53.176;8.194;2023-05-07T10:04:31;13.40;99.90
18444;DHT22;9350;53.176;8.194;2023-05-07T10:06:59;13.50;99.90
18444;DHT22;9350;53.176;8.194;2023-05-07T10:09:26;13.50;99.90
18444;DHT22;9350;53.176;8.194;2023-05-07T10:11:54;13.60;99.90
18444;DHT22;9350;53.176;8.194;2023-05-07T10:14:21;13.60;99.90
18444;DHT22;9350;53.176;8.194;2023-05-07T10:16:50;13.60;99.90
18444;DHT22;9350;53.176;8.194;2023-05-07T10:19:17;13.70;99.90
18444;DHT22;9350;53.176;8.194;2023-05-07T10:21:53;13.70;99.90
18444;DHT22;9350;53.176;8.194;2023-05-07T10:24:25;14.00;99.90
18444;DHT22;9350;53.176;8.194;2023-05-07T10:26:53;14.10;99.90
18444;DHT22;9350;53.176;8.194;2023-05-07T10:29:29;14.10;99.90
18444;DHT22;9350;53.176;8.194;2023-05-07T10:32:08;14.00;99.90
18444;DHT22;9350;53.176;8.194;2023-05-07T10:34:41;14.10;99.90
18444;DHT22;9350;53.176;8.194;2023-05-07T10:37:10;14.20;99.90
18444;DHT22;9350;53.176;8.194;2023-05-07T10:39:38;14.20;99.90
18444;DHT22;9350;53.176;8.194;2023-05-07T10:42:08;14.20;99.90
18444;DHT22;9350;53.176;8.194;2023-05-07T10:44:35;14.20;99.90
18444;DHT22;9350;53.176;8.194;2023-05-07T10:47:19;14.20;99.90
18444;DHT22;9350;53.176;8.194;2023-05-07T10:50:22;14.20;99.90
18444;DHT22;9350;53.176;8.194;2023-05-07T10:53:24;14.30;99.90
18444;DHT22;9350;53.176;8.194;2023-05-07T10:56:24;14.20;99.90
18444;DHT22;9350;53.176;8.194;2023-05-07T10:58:52;14.20;99.90
18444;DHT22;9350;53.176;8.194;2023-05-07T11:04:25;14.30;99.90
18444;DHT22;9350;53.176;8.194;2023-05-07T11:10:00;14.40;99.90
18444;DHT22;9350;53.176;8.194;2023-05-07T11:12:47;14.50;99.90
18444;DHT22;9350;53.176;8.194;2023-05-07T11:15:14;14.50;99.90
18444;DHT22;9350;53.176;8.194;2023-05-07T11:17:53;14.70;99.90
18444;DHT22;9350;53.176;8.194;2023-05-07T11:20:44;14.60;99.90
18444;DHT22;9350;53.176;8.194;2023-05-07T11:23:56;14.70;99.90
18444;DHT22;9350;53.176;8.194;2023-05-07T11:26:28;14.80;99.90
18444;DHT22;9350;53.176;8.194;2023-05-07T11:28:55;14.90;99.90
18444;DHT22;9350;53.176;8.194;2023-05-07T11:31:23;15.00;99.90
18444;DHT22;9350;53.176;8.194;2023-05-07T11:33:52;15.00;99.90
18444;DHT22;9350;53.176;8.194;2023-05-07T11:36:21;14.90;99.90
18444;DHT22;9350;53.176;8.194;2023-05-07T11:38:48;14.90;99.90
18444;DHT22;9350;53.176;8.194;2023-05-07T11:41:16;14.80;99.90
18444;DHT22;9350;53.176;8.194;2023-05-07T11:43:57;14.90;99.90
18444;DHT22;9350;53.176;8.194;2023-05-07T11:46:24;14.90;99.90
18444;DHT22;9350;53.176;8.194;2023-05-07T11:48:51;14.90;99.90
18444;DHT22;9350;53.176;8.194;2023-05-07T11:51:24;14.90;99.90
18444;DHT22;9350;53.176;8.194;2023-05-07T11:53:52;14.90;99.90
18444;DHT22;9350;53.176;8.194;2023-05-07T11:56:19;14.90;99.90
18444;DHT22;9350;53.176;8.194;2023-05-07T11:58:47;14.80;99.90
18444;DHT22;9350;53.176;8.194;2023-05-07T12:01:14;14.80;99.90
18444;DHT22;9350;53.176;8.194;2023-05-07T12:03:43;14.90;99.90
18444;DHT22;9350;53.176;8.194;2023-05-07T12:06:11;14.90;99.90
18444;DHT22;9350;53.176;8.194;2023-05-07T12:08:41;14.90;99.90
18444;DHT22;9350;53.176;8.194;2023-05-07T12:11:09;15.00;99.90
18444;DHT22;9350;53.176;8.194;2023-05-07T12:13:37;15.00;99.90
18444;DHT22;9350;53.176;8.194;2023-05-07T12:16:05;15.10;99.90
18444;DHT22;9350;53.176;8.194;2023-05-07T12:18:32;15.10;99.90
18444;DHT22;9350;53.176;8.194;2023-05-07T12:21:00;15.10;99.90
18444;DHT22;9350;53.176;8.194;2023-05-07T12:23:27;15.20;99.90
18444;DHT22;9350;53.176;8.194;2023-05-07T12:25:55;15.10;99.90
18444;DHT22;9350;53.176;8.194;2023-05-07T12:28:22;15.10;99.90
18444;DHT22;9350;53.176;8.194;2023-05-07T12:30:50;15.00;99.90
18444;DHT22;9350;53.176;8.194;2023-05-07T12:33:18;15.00;99.90
18444;DHT22;9350;53.176;8.194;2023-05-07T12:35:47;15.00;99.90
18444;DHT22;9350;53.176;8.194;2023-05-07T12:38:15;15.10;99.90
18444;DHT22;9350;53.176;8.194;2023-05-07T12:40:44;15.00;99.90
18444;DHT22;9350;53.176;8.194;2023-05-07T12:43:16;15.10;99.90
18444;DHT22;9350;53.176;8.194;2023-05-07T12:45:44;15.10;99.90
18444;DHT22;9350;53.176;8.194;2023-05-07T12:48:12;15.10;99.90
18444;DHT22;9350;53.176;8.194;2023-05-07T12:50:39;15.10;99.90
18444;DHT22;9350;53.176;8.194;2023-05-07T12:53:07;15.20;99.90
18444;DHT22;9350;53.176;8.194;2023-05-07T12:55:41;15.10;99.90
18444;DHT22;9350;53.176;8.194;2023-05-07T12:58:08;15.10;99.90
18444;DHT22;9350;53.176;8.194;2023-05-07T13:00:42;15.10;99.90
18444;DHT22;9350;53.176;8.194;2023-05-07T13:03:09;15.10;99.90
18444;DHT22;9350;53.176;8.194;2023-05-07T13:05:36;15.20;99.90
18444;DHT22;9350;53.176;8.194;2023-05-07T13:08:03;15.20;99.90
18444;DHT22;9350;53.176;8.194;2023-05-07T13:10:30;15.20;99.90
18444;DHT22;9350;53.176;8.194;2023-05-07T13:12:58;15.20;99.90
18444;DHT22;9350;53.176;8.194;2023-05-07T13:15:25;15.20;99.90
18444;DHT22;9350;53.176;8.194;2023-05-07T13:17:54;15.20;99.90
18444;DHT22;9350;53.176;8.194;2023-05-07T13:20:20;15.30;99.90
18444;DHT22;9350;53.176;8.194;2023-05-07T13:22:47;15.30;99.90
18444;DHT22;9350;53.176;8.194;2023-05-07T13:25:14;15.30;99.90
18444;DHT22;9350;53.176;8.194;2023-05-07T13:27:40;15.40;99.90
18444;DHT22;9350;53.176;8.194;2023-05-07T13:30:07;15.50;99.90
18444;DHT22;9350;53.176;8.194;2023-05-07T13:32:34;15.60;99.90
18444;DHT22;9350;53.176;8.194;2023-05-07T13:35:03;15.70;99.90
18444;DHT22;9350;53.176;8.194;2023-05-07T13:37:30;15.70;99.90
18444;DHT22;9350;53.176;8.194;2023-05-07T13:39:56;15.70;99.90
18444;DHT22;9350;53.176;8.194;2023-05-07T13:42:23;15.80;99.90
18444;DHT22;9350;53.176;8.194;2023-05-07T13:44:50;15.90;99.90
18444;DHT22;9350;53.176;8.194;2023-05-07T13:47:16;16.00;99.90
18444;DHT22;9350;53.176;8.194;2023-05-07T13:49:43;16.10;99.90
18444;DHT22;9350;53.176;8.194;2023-05-07T13:52:11;16.10;99.90
18444;DHT22;9350;53.176;8.194;2023-05-07T13:54:38;16.20;99.90
18444;DHT22;9350;53.176;8.194;2023-05-07T13:57:05;16.20;99.90
18444;DHT22;9350;53.176;8.194;2023-05-07T13:59:31;16.20;99.90
18444;DHT22;9350;53.176;8.194;2023-05-07T14:01:58;16.10;99.90
18444;DHT22;9350;53.176;8.194;2023-05-07T14:04:25;16.10;99.90
18444;DHT22;9350;53.176;8.194;2023-05-07T14:06:51;16.10;99.90
18444;DHT22;9350;53.176;8.194;2023-05-07T14:09:19;16.00;99.90
18444;DHT22;9350;53.176;8.194;2023-05-07T14:11:46;16.10;99.90
18444;DHT22;9350;53.176;8.194;2023-05-07T14:14:16;16.20;99.90
18444;DHT22;9350;53.176;8.194;2023-05-07T14:16:43;16.20;99.90
18444;DHT22;9350;53.176;8.194;2023-05-07T14:19:10;16.20;99.90
18444;DHT22;9350;53.176;8.194;2023-05-07T14:21:37;16.20;99.90
18444;DHT22;9350;53.176;8.194;2023-05-07T14:24:04;16.20;99.90
18444;DHT22;9350;53.176;8.194;2023-05-07T14:26:32;16.30;99.90
18444;DHT22;9350;53.176;8.194;2023-05-07T14:28:59;16.20;99.90
18444;DHT22;9350;53.176;8.194;2023-05-07T14:31:25;16.20;99.90
18444;DHT22;9350;53.176;8.194;2023-05-07T14:33:52;16.20;99.90
18444;DHT22;9350;53.176;8.194;2023-05-07T14:36:19;16.20;99.90
18444;DHT22;9350;53.176;8.194;2023-05-07T14:38:48;16.20;99.90
18444;DHT22;9350;53.176;8.194;2023-05-07T14:41:15;16.30;99.90
18444;DHT22;9350;53.176;8.194;2023-05-07T14:43:43;16.30;99.90
18444;DHT22;9350;53.176;8.194;2023-05-07T14:46:15;16.30;99.90
18444;DHT22;9350;53.176;8.194;2023-05-07T14:48:42;16.20;99.90
18444;DHT22;9350;53.176;8.194;2023-05-07T14:51:09;16.20;99.90
18444;DHT22;9350;53.176;8.194;2023-05-07T14:53:36;16.20;99.90
18444;DHT22;9350;53.176;8.194;2023-05-07T14:56:03;16.30;99.90
18444;DHT22;9350;53.176;8.194;2023-05-07T14:58:30;16.30;99.90
18444;DHT22;9350;53.176;8.194;2023-05-07T15:00:58;16.20;99.90
18444;DHT22;9350;53.176;8.194;2023-05-07T15:03:25;16.20;99.90
18444;DHT22;9350;53.176;8.194;2023-05-07T15:05:52;16.30;99.90
18444;DHT22;9350;53.176;8.194;2023-05-07T15:08:19;16.30;99.90
18444;DHT22;9350;53.176;8.194;2023-05-07T15:10:45;16.40;99.90
18444;DHT22;9350;53.176;8.194;2023-05-07T15:13:12;16.50;99.90
18444;DHT22;9350;53.176;8.194;2023-05-07T15:15:39;16.50;99.90
18444;DHT22;9350;53.176;8.194;2023-05-07T15:18:07;16.60;99.90
18444;DHT22;9350;53.176;8.194;2023-05-07T15:20:34;16.60;99.90
18444;DHT22;9350;53.176;8.194;2023-05-07T15:23:01;16.70;99.90
18444;DHT22;9350;53.176;8.194;2023-05-07T15:25:28;16.70;99.90
18444;DHT22;9350;53.176;8.194;2023-05-07T15:27:56;16.70;99.90
18444;DHT22;9350;53.176;8.194;2023-05-07T15:30:23;16.60;99.90
18444;DHT22;9350;53.176;8.194;2023-05-07T15:32:50;16.60;99.90
18444;DHT22;9350;53.176;8.194;2023-05-07T15:35:18;16.60;99.90
18444;DHT22;9350;53.176;8.194;2023-05-07T15:37:47;16.70;99.90
18444;DHT22;9350;53.176;8.194;2023-05-07T15:40:14;16.70;99.90
18444;DHT22;9350;53.176;8.194;2023-05-07T15:42:41;16.70;99.90
18444;DHT22;9350;53.176;8.194;2023-05-07T15:45:09;16.70;99.90
18444;DHT22;9350;53.176;8.194;2023-05-07T15:47:36;16.70;99.90
18444;DHT22;9350;53.176;8.194;2023-05-07T15:50:03;16.70;99.90
18444;DHT22;9350;53.176;8.194;2023-05-07T15:52:31;16.60;99.90
18444;DHT22;9350;53.176;8.194;2023-05-07T15:54:58;16.50;99.90
18444;DHT22;9350;53.176;8.194;2023-05-07T15:57:25;16.40;99.90